SJV776 WARR-WADL
Flight info
| Callsign | SJV776 |
|---|---|
| Flight time | 0h 42m |
| Altitude | 26999 |
| Route | ENTAS W34 AGUNG |
| Aircraft | A320/M-SDE3FGHIRWY/LB1 |
Departure
| Time | 2026-05-07 05:47 |
|---|---|
| Airport | Juanda International Airport (WARR) |
Arrival
| Time | 2026-05-07 06:30 |
|---|---|
| Airport | Lombok International Airport (WADL) |
| Time | Latitude | Longitude | Altitude | Speed | Heading |
|---|---|---|---|---|---|
| 2026-05-07 05:24 | -7.37611 | 112.79592 | 9 ft | 0 kts | 9° |
| 2026-05-07 05:36 | -7.37624 | 112.79590 | 10 ft | 2 kts | 9° |
| 2026-05-07 05:36 | -7.37640 | 112.79588 | 11 ft | 2 kts | 9° |
| 2026-05-07 05:36 | -7.37657 | 112.79585 | 12 ft | 2 kts | 9° |
| 2026-05-07 05:37 | -7.37673 | 112.79582 | 11 ft | 2 kts | 0° |
| 2026-05-07 05:37 | -7.37689 | 112.79585 | 9 ft | 2 kts | 323° |
| 2026-05-07 05:37 | -7.37700 | 112.79597 | 10 ft | 2 kts | 290° |
| 2026-05-07 05:37 | -7.37703 | 112.79604 | 12 ft | 0 kts | 280° |
| 2026-05-07 05:40 | -7.37701 | 112.79592 | 10 ft | 5 kts | 279° |
| 2026-05-07 05:40 | -7.37693 | 112.79542 | 9 ft | 8 kts | 279° |
| 2026-05-07 05:40 | -7.37683 | 112.79479 | 9 ft | 8 kts | 279° |
| 2026-05-07 05:41 | -7.37723 | 112.79446 | 9 ft | 9 kts | 192° |
| 2026-05-07 05:41 | -7.37794 | 112.79434 | 11 ft | 11 kts | 189° |
| 2026-05-07 05:41 | -7.37877 | 112.79420 | 10 ft | 12 kts | 196° |
| 2026-05-07 05:41 | -7.37913 | 112.79345 | 9 ft | 14 kts | 277° |
| 2026-05-07 05:42 | -7.37898 | 112.79243 | 9 ft | 16 kts | 279° |
| 2026-05-07 05:42 | -7.37879 | 112.79127 | 9 ft | 18 kts | 279° |
| 2026-05-07 05:42 | -7.37865 | 112.79041 | 9 ft | 12 kts | 279° |
| 2026-05-07 05:42 | -7.37851 | 112.78952 | 9 ft | 14 kts | 279° |
| 2026-05-07 05:43 | -7.37834 | 112.78850 | 9 ft | 16 kts | 279° |
| 2026-05-07 05:43 | -7.37815 | 112.78734 | 9 ft | 18 kts | 279° |
| 2026-05-07 05:43 | -7.37794 | 112.78604 | 9 ft | 20 kts | 279° |
| 2026-05-07 05:43 | -7.37772 | 112.78462 | 9 ft | 21 kts | 279° |
| 2026-05-07 05:44 | -7.37747 | 112.78306 | 9 ft | 23 kts | 279° |
| 2026-05-07 05:44 | -7.37719 | 112.78138 | 11 ft | 25 kts | 279° |
| 2026-05-07 05:44 | -7.37690 | 112.77956 | 11 ft | 27 kts | 279° |
| 2026-05-07 05:44 | -7.37661 | 112.77777 | 9 ft | 25 kts | 279° |
| 2026-05-07 05:45 | -7.37633 | 112.77603 | 10 ft | 22 kts | 279° |
| 2026-05-07 05:45 | -7.37614 | 112.77486 | 9 ft | 12 kts | 279° |
| 2026-05-07 05:45 | -7.37613 | 112.77419 | 9 ft | 10 kts | 252° |
| 2026-05-07 05:45 | -7.37672 | 112.77381 | 8 ft | 6 kts | 192° |
| 2026-05-07 05:46 | -7.37722 | 112.77370 | 8 ft | 8 kts | 191° |
| 2026-05-07 05:46 | -7.37772 | 112.77379 | 9 ft | 7 kts | 122° |
| 2026-05-07 05:46 | -7.37782 | 112.77441 | 9 ft | 15 kts | 99° |
| 2026-05-07 05:46 | -7.37831 | 112.77748 | 9 ft | 78 kts | 99° |
| 2026-05-07 05:47 | -7.37950 | 112.78484 | 9 ft | 132 kts | 99° |
| 2026-05-07 05:47 | -7.38116 | 112.79514 | 244 ft | 154 kts | 98° |
| 2026-05-07 05:47 | -7.38289 | 112.80575 | 828 ft | 154 kts | 98° |
| 2026-05-07 05:47 | -7.38462 | 112.81641 | 1385 ft | 153 kts | 99° |
| 2026-05-07 05:48 | -7.38634 | 112.82708 | 1761 ft | 159 kts | 99° |
| 2026-05-07 05:48 | -7.38824 | 112.83882 | 1960 ft | 181 kts | 98° |
| 2026-05-07 05:48 | -7.39039 | 112.85210 | 2179 ft | 203 kts | 99° |
| 2026-05-07 05:48 | -7.39281 | 112.86705 | 2435 ft | 228 kts | 99° |
| 2026-05-07 05:49 | -7.39548 | 112.88363 | 2828 ft | 250 kts | 99° |
| 2026-05-07 05:49 | -7.39834 | 112.90126 | 3566 ft | 258 kts | 99° |
| 2026-05-07 05:49 | -7.40124 | 112.91915 | 4447 ft | 260 kts | 99° |
| 2026-05-07 05:49 | -7.40451 | 112.93718 | 5302 ft | 263 kts | 101° |
| 2026-05-07 05:50 | -7.40836 | 112.95534 | 6135 ft | 267 kts | 102° |
| 2026-05-07 05:50 | -7.41244 | 112.97372 | 6909 ft | 271 kts | 102° |
| 2026-05-07 05:50 | -7.41664 | 112.99241 | 7657 ft | 276 kts | 102° |
| 2026-05-07 05:50 | -7.42090 | 113.01138 | 8409 ft | 280 kts | 102° |
| 2026-05-07 05:51 | -7.42518 | 113.03070 | 9152 ft | 285 kts | 102° |
| 2026-05-07 05:51 | -7.42947 | 113.05028 | 9888 ft | 289 kts | 101° |
| 2026-05-07 05:51 | -7.43385 | 113.07042 | 10327 ft | 303 kts | 101° |
| 2026-05-07 05:51 | -7.43850 | 113.09197 | 10493 ft | 326 kts | 102° |
| 2026-05-07 05:52 | -7.44342 | 113.11488 | 10784 ft | 341 kts | 101° |
| 2026-05-07 05:52 | -7.44850 | 113.13845 | 11332 ft | 347 kts | 102° |
| 2026-05-07 05:52 | -7.45366 | 113.16232 | 11915 ft | 351 kts | 102° |
| 2026-05-07 05:52 | -7.45890 | 113.18649 | 12492 ft | 355 kts | 102° |
| 2026-05-07 05:53 | -7.46420 | 113.21095 | 13059 ft | 360 kts | 102° |
| 2026-05-07 05:53 | -7.46959 | 113.23572 | 13612 ft | 364 kts | 102° |
| 2026-05-07 05:53 | -7.47504 | 113.26080 | 14109 ft | 368 kts | 102° |
| 2026-05-07 05:53 | -7.48054 | 113.28611 | 14613 ft | 372 kts | 102° |
| 2026-05-07 05:54 | -7.48607 | 113.31169 | 15121 ft | 375 kts | 102° |
| 2026-05-07 05:54 | -7.49164 | 113.33745 | 15624 ft | 378 kts | 102° |
| 2026-05-07 05:54 | -7.49726 | 113.36344 | 16128 ft | 381 kts | 102° |
| 2026-05-07 05:54 | -7.50290 | 113.38964 | 16630 ft | 384 kts | 102° |
| 2026-05-07 05:55 | -7.50858 | 113.41605 | 17123 ft | 388 kts | 102° |
| 2026-05-07 05:55 | -7.51433 | 113.44273 | 17625 ft | 391 kts | 102° |
| 2026-05-07 05:55 | -7.52015 | 113.46963 | 18117 ft | 395 kts | 102° |
| 2026-05-07 05:55 | -7.52601 | 113.49673 | 18546 ft | 398 kts | 102° |
| 2026-05-07 05:56 | -7.53192 | 113.52406 | 18992 ft | 401 kts | 102° |
| 2026-05-07 05:56 | -7.53787 | 113.55164 | 19438 ft | 404 kts | 102° |
| 2026-05-07 05:56 | -7.54381 | 113.57928 | 20050 ft | 399 kts | 102° |
| 2026-05-07 05:56 | -7.54952 | 113.60590 | 21236 ft | 379 kts | 102° |
| 2026-05-07 05:57 | -7.55493 | 113.63116 | 22427 ft | 358 kts | 102° |
| 2026-05-07 05:57 | -7.56003 | 113.65493 | 23572 ft | 337 kts | 102° |
| 2026-05-07 05:57 | -7.56488 | 113.67766 | 24219 ft | 329 kts | 103° |
| 2026-05-07 05:57 | -7.56967 | 113.70019 | 24651 ft | 328 kts | 103° |
| 2026-05-07 05:58 | -7.57449 | 113.72266 | 24991 ft | 329 kts | 103° |
| 2026-05-07 05:58 | -7.57938 | 113.74527 | 25321 ft | 331 kts | 103° |
| 2026-05-07 05:58 | -7.58427 | 113.76794 | 25653 ft | 332 kts | 104° |
| 2026-05-07 05:58 | -7.58921 | 113.79073 | 25954 ft | 334 kts | 103° |
| 2026-05-07 05:59 | -7.59415 | 113.81369 | 26262 ft | 336 kts | 103° |
| 2026-05-07 05:59 | -7.59906 | 113.83679 | 26580 ft | 338 kts | 103° |
| 2026-05-07 05:59 | -7.60402 | 113.86008 | 26813 ft | 343 kts | 103° |
| 2026-05-07 05:59 | -7.60913 | 113.88397 | 26865 ft | 355 kts | 103° |
| 2026-05-07 06:00 | -7.61444 | 113.90868 | 26864 ft | 368 kts | 103° |
| 2026-05-07 06:00 | -7.61994 | 113.93433 | 26868 ft | 381 kts | 103° |
| 2026-05-07 06:00 | -7.62562 | 113.96085 | 26864 ft | 394 kts | 103° |
| 2026-05-07 06:00 | -7.63152 | 113.98828 | 26864 ft | 407 kts | 103° |
| 2026-05-07 06:01 | -7.63760 | 114.01662 | 26866 ft | 420 kts | 103° |
| 2026-05-07 06:01 | -7.64387 | 114.04581 | 26860 ft | 432 kts | 103° |
| 2026-05-07 06:01 | -7.65029 | 114.07578 | 26860 ft | 443 kts | 103° |
| 2026-05-07 06:01 | -7.65684 | 114.10644 | 26860 ft | 450 kts | 103° |
| 2026-05-07 06:02 | -7.66342 | 114.13734 | 26860 ft | 452 kts | 103° |
| 2026-05-07 06:02 | -7.67001 | 114.16834 | 26863 ft | 453 kts | 103° |
| 2026-05-07 06:02 | -7.67664 | 114.19935 | 26859 ft | 453 kts | 103° |
| 2026-05-07 06:02 | -7.68327 | 114.23039 | 26860 ft | 453 kts | 103° |
| 2026-05-07 06:03 | -7.68988 | 114.26144 | 26859 ft | 453 kts | 103° |
| 2026-05-07 06:03 | -7.69648 | 114.29246 | 26861 ft | 453 kts | 103° |
| 2026-05-07 06:03 | -7.70307 | 114.32357 | 26860 ft | 453 kts | 103° |
| 2026-05-07 06:03 | -7.70966 | 114.35462 | 26856 ft | 453 kts | 103° |
| 2026-05-07 06:04 | -7.71628 | 114.38569 | 26858 ft | 453 kts | 103° |
| 2026-05-07 06:04 | -7.72290 | 114.41677 | 26857 ft | 453 kts | 103° |
| 2026-05-07 06:04 | -7.72953 | 114.44776 | 26854 ft | 453 kts | 103° |
| 2026-05-07 06:04 | -7.73617 | 114.47880 | 26854 ft | 453 kts | 103° |
| 2026-05-07 06:05 | -7.74280 | 114.50981 | 26852 ft | 453 kts | 103° |
| 2026-05-07 06:05 | -7.74943 | 114.54086 | 26853 ft | 453 kts | 103° |
| 2026-05-07 06:05 | -7.75608 | 114.57193 | 26852 ft | 453 kts | 103° |
| 2026-05-07 06:05 | -7.76048 | 114.59243 | 26852 ft | 453 kts | 103° |
| 2026-05-07 06:06 | -7.76936 | 114.63381 | 26853 ft | 453 kts | 103° |
| 2026-05-07 06:06 | -7.77598 | 114.66500 | 26853 ft | 453 kts | 103° |
| 2026-05-07 06:06 | -7.78031 | 114.68557 | 26852 ft | 453 kts | 103° |
| 2026-05-07 06:06 | -7.78685 | 114.71664 | 26849 ft | 453 kts | 103° |
| 2026-05-07 06:07 | -7.79338 | 114.74773 | 26851 ft | 453 kts | 103° |
| 2026-05-07 06:07 | -7.79997 | 114.77879 | 26846 ft | 453 kts | 103° |
| 2026-05-07 06:07 | -7.80660 | 114.80982 | 26842 ft | 449 kts | 103° |
| 2026-05-07 06:07 | -7.81309 | 114.84023 | 26563 ft | 439 kts | 103° |
| 2026-05-07 06:08 | -7.81944 | 114.87013 | 26119 ft | 434 kts | 103° |
| 2026-05-07 06:08 | -7.82572 | 114.89976 | 25656 ft | 430 kts | 103° |
| 2026-05-07 06:08 | -7.83194 | 114.92915 | 25205 ft | 427 kts | 103° |
| 2026-05-07 06:08 | -7.83811 | 114.95833 | 24760 ft | 424 kts | 103° |
| 2026-05-07 06:09 | -7.84425 | 114.98735 | 24331 ft | 422 kts | 103° |
| 2026-05-07 06:09 | -7.85036 | 115.01617 | 23921 ft | 419 kts | 103° |
| 2026-05-07 06:09 | -7.85645 | 115.04484 | 23521 ft | 417 kts | 102° |
| 2026-05-07 06:09 | -7.86250 | 115.07341 | 23085 ft | 415 kts | 102° |
| 2026-05-07 06:10 | -7.86853 | 115.10174 | 22650 ft | 412 kts | 102° |
| 2026-05-07 06:10 | -7.87450 | 115.12991 | 22210 ft | 409 kts | 102° |
| 2026-05-07 06:10 | -7.88044 | 115.15782 | 21787 ft | 406 kts | 102° |
| 2026-05-07 06:10 | -7.88633 | 115.18560 | 21353 ft | 403 kts | 102° |
| 2026-05-07 06:11 | -7.89215 | 115.21314 | 20920 ft | 400 kts | 102° |
| 2026-05-07 06:11 | -7.89795 | 115.24046 | 20484 ft | 397 kts | 102° |
| 2026-05-07 06:11 | -7.90370 | 115.26758 | 20040 ft | 394 kts | 102° |
| 2026-05-07 06:11 | -7.90939 | 115.29456 | 19599 ft | 392 kts | 102° |
| 2026-05-07 06:12 | -7.91501 | 115.32133 | 19154 ft | 389 kts | 102° |
| 2026-05-07 06:12 | -7.92061 | 115.34794 | 18717 ft | 387 kts | 102° |
| 2026-05-07 06:12 | -7.92619 | 115.37438 | 18273 ft | 384 kts | 102° |
| 2026-05-07 06:12 | -7.93173 | 115.40063 | 17796 ft | 381 kts | 102° |
| 2026-05-07 06:13 | -7.93721 | 115.42671 | 17313 ft | 379 kts | 102° |
| 2026-05-07 06:13 | -7.94264 | 115.45257 | 16838 ft | 376 kts | 102° |
| 2026-05-07 06:13 | -7.94806 | 115.47826 | 16379 ft | 373 kts | 102° |
| 2026-05-07 06:13 | -7.95343 | 115.50370 | 15926 ft | 370 kts | 102° |
| 2026-05-07 06:14 | -7.95876 | 115.52896 | 15480 ft | 367 kts | 102° |
| 2026-05-07 06:14 | -7.96402 | 115.55400 | 15042 ft | 364 kts | 102° |
| 2026-05-07 06:14 | -7.96927 | 115.57886 | 14614 ft | 361 kts | 102° |
| 2026-05-07 06:14 | -7.97444 | 115.60350 | 14182 ft | 358 kts | 102° |
| 2026-05-07 06:15 | -7.97958 | 115.62800 | 13769 ft | 355 kts | 102° |
| 2026-05-07 06:15 | -7.98491 | 115.65225 | 13318 ft | 353 kts | 106° |
| 2026-05-07 06:15 | -7.99412 | 115.67494 | 12924 ft | 348 kts | 120° |
| 2026-05-07 06:15 | -8.00815 | 115.69475 | 12826 ft | 348 kts | 132° |
| 2026-05-07 06:16 | -8.02609 | 115.71112 | 12845 ft | 350 kts | 142° |
| 2026-05-07 06:16 | -8.04543 | 115.72606 | 12597 ft | 349 kts | 142° |
| 2026-05-07 06:16 | -8.06463 | 115.74092 | 12372 ft | 347 kts | 142° |
| 2026-05-07 06:16 | -8.08374 | 115.75568 | 12051 ft | 345 kts | 142° |
| 2026-05-07 06:17 | -8.10274 | 115.77036 | 11686 ft | 342 kts | 142° |
| 2026-05-07 06:17 | -8.12155 | 115.78492 | 11396 ft | 340 kts | 141° |
| 2026-05-07 06:17 | -8.14027 | 115.79942 | 11036 ft | 338 kts | 141° |
| 2026-05-07 06:17 | -8.15888 | 115.81383 | 10685 ft | 336 kts | 141° |
| 2026-05-07 06:18 | -8.17830 | 115.82677 | 10343 ft | 332 kts | 148° |
| 2026-05-07 06:18 | -8.19778 | 115.83848 | 10222 ft | 320 kts | 148° |
| 2026-05-07 06:18 | -8.21659 | 115.84983 | 10107 ft | 309 kts | 148° |
| 2026-05-07 06:18 | -8.23476 | 115.86084 | 9919 ft | 302 kts | 147° |
| 2026-05-07 06:19 | -8.25256 | 115.87165 | 9764 ft | 297 kts | 147° |
| 2026-05-07 06:19 | -8.27022 | 115.88236 | 9486 ft | 295 kts | 147° |
| 2026-05-07 06:19 | -8.28775 | 115.89299 | 9219 ft | 294 kts | 147° |
| 2026-05-07 06:19 | -8.30522 | 115.90359 | 8958 ft | 292 kts | 147° |
| 2026-05-07 06:20 | -8.32263 | 115.91414 | 8698 ft | 291 kts | 147° |
| 2026-05-07 06:20 | -8.33993 | 115.92462 | 8437 ft | 290 kts | 147° |
| 2026-05-07 06:20 | -8.35717 | 115.93506 | 8176 ft | 288 kts | 148° |
| 2026-05-07 06:20 | -8.37431 | 115.94544 | 7919 ft | 287 kts | 147° |
| 2026-05-07 06:21 | -8.39136 | 115.95576 | 7662 ft | 285 kts | 148° |
| 2026-05-07 06:21 | -8.40837 | 115.96606 | 7411 ft | 284 kts | 148° |
| 2026-05-07 06:21 | -8.42523 | 115.97630 | 7156 ft | 282 kts | 148° |
| 2026-05-07 06:21 | -8.44199 | 115.98653 | 6903 ft | 281 kts | 148° |
| 2026-05-07 06:22 | -8.45869 | 115.99671 | 6652 ft | 280 kts | 148° |
| 2026-05-07 06:22 | -8.49188 | 116.01686 | 6143 ft | 276 kts | 148° |
| 2026-05-07 06:22 | -8.50823 | 116.02674 | 5889 ft | 272 kts | 148° |
| 2026-05-07 06:23 | -8.52433 | 116.03647 | 5649 ft | 266 kts | 148° |
| 2026-05-07 06:23 | -8.53974 | 116.04579 | 5424 ft | 251 kts | 148° |
| 2026-05-07 06:23 | -8.55429 | 116.05462 | 5205 ft | 237 kts | 148° |
| 2026-05-07 06:23 | -8.56802 | 116.06298 | 4998 ft | 224 kts | 148° |
| 2026-05-07 06:24 | -8.58095 | 116.07085 | 4806 ft | 211 kts | 148° |
| 2026-05-07 06:24 | -8.59329 | 116.07835 | 4624 ft | 205 kts | 148° |
| 2026-05-07 06:24 | -8.60488 | 116.08659 | 4440 ft | 203 kts | 134° |
| 2026-05-07 06:24 | -8.61396 | 116.09745 | 4203 ft | 202 kts | 128° |
| 2026-05-07 06:25 | -8.62284 | 116.10841 | 4049 ft | 201 kts | 129° |
| 2026-05-07 06:25 | -8.63165 | 116.11929 | 3851 ft | 198 kts | 128° |
| 2026-05-07 06:25 | -8.64026 | 116.12996 | 3580 ft | 194 kts | 128° |
| 2026-05-07 06:25 | -8.64873 | 116.14047 | 3330 ft | 192 kts | 128° |
| 2026-05-07 06:26 | -8.65701 | 116.15075 | 3094 ft | 183 kts | 129° |
| 2026-05-07 06:26 | -8.66470 | 116.16030 | 2868 ft | 167 kts | 129° |
| 2026-05-07 06:26 | -8.67171 | 116.16901 | 2670 ft | 152 kts | 130° |
| 2026-05-07 06:26 | -8.67817 | 116.17704 | 2485 ft | 143 kts | 131° |
| 2026-05-07 06:27 | -8.68438 | 116.18475 | 2309 ft | 140 kts | 131° |
| 2026-05-07 06:27 | -8.69052 | 116.19237 | 2124 ft | 139 kts | 132° |
| 2026-05-07 06:27 | -8.69663 | 116.19995 | 1949 ft | 139 kts | 132° |
| 2026-05-07 06:27 | -8.70274 | 116.20755 | 1777 ft | 139 kts | 132° |
| 2026-05-07 06:28 | -8.70883 | 116.21511 | 1583 ft | 139 kts | 131° |
| 2026-05-07 06:28 | -8.71491 | 116.22267 | 1415 ft | 138 kts | 132° |
| 2026-05-07 06:28 | -8.72097 | 116.23020 | 1250 ft | 138 kts | 132° |
| 2026-05-07 06:28 | -8.72701 | 116.23770 | 1057 ft | 138 kts | 133° |
| 2026-05-07 06:29 | -8.73306 | 116.24523 | 881 ft | 138 kts | 130° |
| 2026-05-07 06:29 | -8.73907 | 116.25278 | 687 ft | 137 kts | 128° |
| 2026-05-07 06:29 | -8.74510 | 116.26025 | 494 ft | 137 kts | 131° |
| 2026-05-07 06:29 | -8.75112 | 116.26771 | 336 ft | 135 kts | 131° |
| 2026-05-07 06:30 | -8.75632 | 116.27411 | 332 ft | 97 kts | 128° |
| 2026-05-07 06:30 | -8.75904 | 116.27752 | 332 ft | 19 kts | 129° |
| 2026-05-07 06:30 | -8.75970 | 116.27828 | 334 ft | 12 kts | 148° |
| 2026-05-07 06:30 | -8.76039 | 116.27806 | 333 ft | 7 kts | 218° |
| 2026-05-07 06:31 | -8.76080 | 116.27772 | 333 ft | 9 kts | 220° |
| 2026-05-07 06:31 | -8.76134 | 116.27726 | 332 ft | 12 kts | 220° |
| 2026-05-07 06:31 | -8.76176 | 116.27665 | 331 ft | 10 kts | 279° |
| 2026-05-07 06:31 | -8.76131 | 116.27599 | 332 ft | 12 kts | 309° |
| 2026-05-07 06:32 | -8.76106 | 116.27560 | 332 ft | 5 kts | 278° |
| 2026-05-07 06:32 | -8.76134 | 116.27529 | 333 ft | 7 kts | 219° |
| 2026-05-07 06:32 | -8.76170 | 116.27500 | 332 ft | 0 kts | 219° |
| 2026-05-07 06:32 | -8.76171 | 116.27499 | 332 ft | 0 kts | 219° |